Time;durP1;ratioP1;P1;durP2;ratioP2;P2;SDS_P1;SDS_P2;PMS_P1;PMS_P2;Temp;Humidity;BMP_temperature;BMP_pressure;BME280_temperature;BME280_humidity;BME280_pressure;Samples;Min_cycle;Max_cycle;Signal;HPM_P1;HPM_P2
2022/12/10 00:02:02;;;;;;;34.70;23.10;;;2.80;94.10;;;;;;5016499;28;20807;-78
2022/12/10 00:04:29;;;;;;;32.73;22.10;;;2.80;94.00;;;;;;5016675;28;20472;-79
2022/12/10 00:06:56;;;;;;;32.30;22.27;;;2.80;94.00;;;;;;5016710;28;20443;-79
2022/12/10 00:09:24;;;;;;;33.97;22.80;;;2.70;94.00;;;;;;5016275;28;20425;-79
2022/12/10 00:11:50;;;;;;;35.30;23.00;;;2.70;94.00;;;;;;5015960;28;20444;-78
2022/12/10 00:14:17;;;;;;;29.10;21.63;;;2.70;94.00;;;;;;5016640;28;20476;-78
2022/12/10 00:16:45;;;;;;;29.37;21.00;;;2.70;94.00;;;;;;5016255;28;20429;-79
2022/12/10 00:19:12;;;;;;;29.80;21.70;;;2.60;93.90;;;;;;5015659;28;20998;-79
2022/12/10 00:21:39;;;;;;;31.00;20.70;;;2.60;93.90;;;;;;5014523;28;20436;-76
2022/12/10 00:24:07;;;;;;;39.57;24.57;;;2.60;93.90;;;;;;4995753;28;20493;-79
2022/12/10 00:26:37;;;;;;;40.13;25.20;;;2.60;94.00;;;;;;4998369;28;20476;-79
2022/12/10 00:29:06;;;;;;;37.63;24.67;;;2.60;94.00;;;;;;4998096;28;20996;-79
2022/12/10 00:31:36;;;;;;;36.67;24.20;;;2.60;94.00;;;;;;4998987;28;20448;-79
2022/12/10 00:34:05;;;;;;;36.23;23.70;;;2.60;93.90;;;;;;4998155;28;20476;-79
2022/12/10 00:36:34;;;;;;;37.80;24.30;;;2.50;93.70;;;;;;4998146;28;20448;-79
2022/12/10 00:39:01;;;;;;;34.83;21.60;;;2.50;93.60;;;;;;4997722;28;20484;-79
2022/12/10 00:41:28;;;;;;;38.20;22.20;;;2.50;93.60;;;;;;4997101;28;20449;-77
2022/12/10 00:43:56;;;;;;;37.57;22.80;;;2.50;93.60;;;;;;4994007;28;20480;-76
2022/12/10 00:46:23;;;;;;;32.40;21.87;;;2.40;93.50;;;;;;4998384;28;20443;-79
2022/12/10 00:48:50;;;;;;;32.67;21.90;;;2.40;93.60;;;;;;4997332;28;20954;-79
2022/12/10 00:51:19;;;;;;;33.10;21.43;;;2.40;93.60;;;;;;4997640;28;20461;-79
2022/12/10 00:53:48;;;;;;;27.73;21.10;;;2.40;93.50;;;;;;4997758;28;20480;-78
2022/12/10 00:56:18;;;;;;;28.60;21.17;;;2.40;93.50;;;;;;5007995;28;20464;-79
2022/12/10 00:58:45;;;;;;;32.67;19.50;;;2.30;93.40;;;;;;4998940;28;20473;-77
2022/12/10 01:01:16;;;;;;;32.27;21.10;;;2.30;93.50;;;;;;4997170;28;20449;-76
2022/12/10 01:03:43;;;;;;;30.20;21.27;;;2.30;93.50;;;;;;4997567;28;20468;-76
2022/12/10 01:06:13;;;;;;;31.27;20.77;;;2.20;93.40;;;;;;4996804;28;20464;-77
2022/12/10 01:08:40;;;;;;;30.53;20.60;;;2.20;93.40;;;;;;4996350;28;20441;-77
2022/12/10 01:11:08;;;;;;;34.20;21.70;;;2.10;93.30;;;;;;4996828;28;20476;-77
2022/12/10 01:13:35;;;;;;;27.47;20.10;;;2.10;93.30;;;;;;4995794;28;20465;-77
2022/12/10 01:16:03;;;;;;;30.73;21.20;;;2.10;93.30;;;;;;4995883;28;20511;-77
2022/12/10 01:18:31;;;;;;;27.63;21.27;;;2.10;93.20;;;;;;4996723;28;20481;-77
2022/12/10 01:21:01;;;;;;;31.40;19.90;;;2.10;93.20;;;;;;4994226;28;21118;-77
2022/12/10 01:23:28;;;;;;;31.57;21.03;;;2.00;93.30;;;;;;4995535;28;20441;-78
2022/12/10 01:25:55;;;;;;;32.00;21.20;;;2.00;93.70;;;;;;4995168;28;20461;-77
2022/12/10 01:28:21;;;;;;;30.37;20.17;;;2.00;93.40;;;;;;4994617;28;20973;-77
2022/12/10 01:30:48;;;;;;;34.73;22.27;;;2.00;93.50;;;;;;4995510;28;20463;-77
2022/12/10 01:33:15;;;;;;;32.10;22.00;;;1.90;93.40;;;;;;4995092;28;20511;-77
2022/12/10 01:35:43;;;;;;;34.57;22.80;;;1.90;93.60;;;;;;4995266;28;20448;-77
2022/12/10 01:38:09;;;;;;;33.63;22.23;;;1.90;93.80;;;;;;4995008;28;20460;-77
2022/12/10 01:40:38;;;;;;;33.23;21.40;;;1.90;93.80;;;;;;4995085;28;20451;-77
2022/12/10 01:43:05;;;;;;;32.87;20.50;;;1.80;93.80;;;;;;4995874;28;20491;-77
2022/12/10 01:45:32;;;;;;;29.37;20.50;;;1.90;93.90;;;;;;4996185;28;21008;-77
2022/12/10 01:47:59;;;;;;;33.60;22.50;;;1.80;93.70;;;;;;4995899;28;20522;-77
2022/12/10 01:50:26;;;;;;;32.60;22.53;;;1.80;93.60;;;;;;4996864;28;20448;-77
2022/12/10 01:52:54;;;;;;;32.20;23.57;;;1.80;93.60;;;;;;4999992;28;20495;-77
2022/12/10 01:55:52;;;;;;;31.43;21.73;;;1.80;93.70;;;;;;4998641;28;20476;-77
2022/12/10 01:58:19;;;;;;;32.60;21.30;;;1.80;93.70;;;;;;4957785;29;20931;-77
2022/12/10 02:00:57;;;;;;;31.67;20.80;;;1.70;93.60;;;;;;4989028;28;20464;-77
2022/12/10 02:03:30;;;;;;;32.40;22.20;;;1.70;93.70;;;;;;4997697;28;20432;-77
2022/12/10 02:06:06;;;;;;;38.50;22.23;;;1.60;93.60;;;;;;4998226;28;20440;-77
2022/12/10 02:08:40;;;;;;;35.87;21.03;;;1.60;93.60;;;;;;4997964;28;20443;-77
2022/12/10 02:11:16;;;;;;;35.17;22.90;;;1.50;93.50;;;;;;4997934;28;20800;-77
2022/12/10 02:13:46;;;;;;;34.73;22.50;;;1.50;93.60;;;;;;4996963;28;20981;-77
2022/12/10 02:16:16;;;;;;;37.23;23.17;;;1.50;93.70;;;;;;4997563;28;20503;-78
2022/12/10 02:18:47;;;;;;;34.13;22.27;;;1.50;93.70;;;;;;4997436;28;20492;-78
2022/12/10 02:21:18;;;;;;;33.93;21.43;;;1.50;93.70;;;;;;4996914;28;20441;-76
2022/12/10 02:23:49;;;;;;;38.70;23.93;;;1.40;93.70;;;;;;4997022;28;20472;-77
2022/12/10 02:26:22;;;;;;;41.10;25.43;;;1.40;93.80;;;;;;4996932;28;20476;-78
2022/12/10 02:28:55;;;;;;;38.23;24.30;;;1.40;94.10;;;;;;4996994;28;20437;-77
2022/12/10 02:31:27;;;;;;;37.17;23.70;;;1.40;94.30;;;;;;4997260;28;20452;-77
2022/12/10 02:33:57;;;;;;;42.67;26.50;;;1.40;94.50;;;;;;4996719;28;20481;-77
2022/12/10 02:36:26;;;;;;;42.00;24.30;;;1.40;94.70;;;;;;4996598;28;20461;-77
2022/12/10 02:38:54;;;;;;;39.10;24.97;;;1.40;94.70;;;;;;4996549;28;20488;-77
2022/12/10 02:41:27;;;;;;;43.97;25.43;;;1.40;94.90;;;;;;4996401;28;20472;-77
2022/12/10 02:43:56;;;;;;;44.00;27.30;;;1.30;94.90;;;;;;4996473;28;20476;-77
2022/12/10 02:46:28;;;;;;;44.43;26.53;;;1.40;95.30;;;;;;4996361;28;20453;-77
2022/12/10 02:48:55;;;;;;;44.80;25.77;;;1.40;95.30;;;;;;4996361;28;20457;-77
2022/12/10 02:51:22;;;;;;;43.33;26.57;;;1.50;95.40;;;;;;4995830;28;20475;-77
2022/12/10 02:53:49;;;;;;;44.67;26.07;;;1.50;95.40;;;;;;4996159;28;20859;-77
2022/12/10 02:56:21;;;;;;;50.73;26.60;;;1.50;95.50;;;;;;4996334;28;20461;-77
2022/12/10 02:59:01;;;;;;;41.83;24.87;;;1.50;95.40;;;;;;4996353;28;20884;-77
2022/12/10 03:01:41;;;;;;;41.47;25.60;;;1.50;95.30;;;;;;4995457;28;20928;-77
2022/12/10 03:04:13;;;;;;;47.93;25.30;;;1.50;95.10;;;;;;4995963;28;20473;-77
2022/12/10 03:06:43;;;;;;;46.80;27.80;;;1.50;95.00;;;;;;4995661;28;20452;-77
2022/12/10 03:09:17;;;;;;;42.40;26.17;;;1.50;95.10;;;;;;4995882;28;20441;-77
2022/12/10 03:11:46;;;;;;;45.33;25.80;;;1.50;95.40;;;;;;4995937;28;20829;-77
2022/12/10 03:14:16;;;;;;;47.53;27.67;;;1.50;95.70;;;;;;4995644;28;20491;-77
2022/12/10 03:16:49;;;;;;;48.43;27.43;;;1.50;95.90;;;;;;4995836;28;20433;-77
2022/12/10 03:19:19;;;;;;;51.43;28.80;;;1.50;96.00;;;;;;4995874;28;20473;-77
2022/12/10 03:21:50;;;;;;;47.67;27.27;;;1.60;96.20;;;;;;4996090;28;20463;-77
2022/12/10 03:24:17;;;;;;;44.10;28.37;;;1.60;96.30;;;;;;4995835;28;20491;-77
2022/12/10 03:26:48;;;;;;;59.10;29.27;;;1.50;96.50;;;;;;4996615;28;20499;-77
2022/12/10 03:29:20;;;;;;;49.50;30.03;;;1.40;96.70;;;;;;4995684;28;20439;-78
2022/12/10 03:31:49;;;;;;;62.57;29.40;;;1.40;96.90;;;;;;4996026;28;20531;-77
2022/12/10 03:34:16;;;;;;;53.87;29.27;;;1.40;97.00;;;;;;4995427;28;20822;-78
2022/12/10 03:36:43;;;;;;;51.67;29.57;;;1.50;97.10;;;;;;4995149;28;20468;-77
2022/12/10 03:39:10;;;;;;;51.13;31.93;;;1.50;97.10;;;;;;4995414;28;20488;-77
2022/12/10 03:41:37;;;;;;;51.80;28.60;;;1.40;97.20;;;;;;4995470;28;20527;-77
2022/12/10 03:44:04;;;;;;;49.43;29.30;;;1.50;97.20;;;;;;4995193;28;20838;-77
2022/12/10 03:46:32;;;;;;;55.13;29.87;;;1.50;97.20;;;;;;4994993;28;20460;-78
2022/12/10 03:49:01;;;;;;;50.93;29.20;;;1.50;97.40;;;;;;4995118;28;20445;-78
2022/12/10 03:51:28;;;;;;;53.23;28.90;;;1.50;97.30;;;;;;4994861;28;20976;-77
2022/12/10 03:53:55;;;;;;;54.27;31.00;;;1.50;97.40;;;;;;4994860;28;20476;-77
2022/12/10 03:56:22;;;;;;;54.93;31.20;;;1.50;97.40;;;;;;5014645;28;20444;-76
2022/12/10 03:58:49;;;;;;;57.03;29.33;;;1.30;97.80;;;;;;5014412;28;20801;-77
2022/12/10 04:01:17;;;;;;;57.43;29.73;;;1.30;97.70;;;;;;5019361;28;20451;-77
2022/12/10 04:03:44;;;;;;;54.83;30.47;;;1.30;97.80;;;;;;5014465;28;20843;-77
2022/12/10 04:06:14;;;;;;;49.13;28.87;;;1.30;97.90;;;;;;4996808;28;20468;-77
2022/12/10 04:08:41;;;;;;;57.57;30.90;;;1.20;98.00;;;;;;4995374;28;20436;-77
2022/12/10 04:11:10;;;;;;;59.27;32.10;;;1.20;98.10;;;;;;4995995;28;20536;-77
2022/12/10 04:16:27;;;;;;;51.77;30.60;;;1.30;98.50;;;;;;4997240;28;20463;-77
2022/12/10 04:18:54;;;;;;;52.03;28.87;;;1.30;98.40;;;;;;4999781;28;20464;-77
2022/12/10 04:26:53;;;;;;;52.23;30.50;;;1.40;98.50;;;;;;4996267;28;20448;-77
2022/12/10 04:29:20;;;;;;;49.43;28.60;;;1.40;98.50;;;;;;4997236;28;20980;-77
2022/12/10 04:31:46;;;;;;;52.57;30.20;;;1.40;98.60;;;;;;4995806;28;20448;-77
2022/12/10 04:34:13;;;;;;;48.20;27.97;;;1.40;98.50;;;;;;4995290;28;20473;-77
2022/12/10 04:36:41;;;;;;;49.03;29.90;;;1.40;98.50;;;;;;4996961;28;20439;-77
2022/12/10 04:39:08;;;;;;;51.93;29.50;;;1.50;98.50;;;;;;5002998;28;20480;-77
2022/12/10 04:41:34;;;;;;;47.77;27.87;;;1.50;98.50;;;;;;5002891;28;20447;-76
2022/12/10 04:44:01;;;;;;;49.90;27.77;;;1.50;98.50;;;;;;5002760;28;20958;-77
2022/12/10 04:46:28;;;;;;;49.90;28.87;;;1.50;98.40;;;;;;5002515;28;20448;-77
2022/12/10 04:48:55;;;;;;;56.57;29.50;;;1.50;98.40;;;;;;5001476;28;20456;-76
2022/12/10 04:51:22;;;;;;;57.00;28.07;;;1.50;98.40;;;;;;5003747;28;20437;-76
2022/12/10 04:53:50;;;;;;;60.67;33.50;;;1.60;98.40;;;;;;5002492;28;20469;-76
2022/12/10 04:56:17;;;;;;;65.20;32.30;;;1.60;98.40;;;;;;5001066;28;20460;-76
2022/12/10 04:58:44;;;;;;;59.50;32.60;;;1.60;98.40;;;;;;4999950;28;20452;-77
2022/12/10 05:01:12;;;;;;;66.53;32.90;;;1.60;98.40;;;;;;4999222;28;20490;-76
2022/12/10 05:03:39;;;;;;;60.40;34.07;;;1.60;98.40;;;;;;4998180;28;20905;-77
2022/12/10 05:06:08;;;;;;;60.70;32.97;;;1.60;98.40;;;;;;4998920;28;20455;-77
2022/12/10 05:08:35;;;;;;;65.80;33.30;;;1.50;98.40;;;;;;4997125;28;20457;-77
2022/12/10 05:11:05;;;;;;;70.47;31.80;;;1.50;98.50;;;;;;4997581;28;20452;-77
2022/12/10 05:13:31;;;;;;;86.43;32.60;;;1.50;98.60;;;;;;4996696;28;20949;-77
2022/12/10 05:15:58;;;;;;;97.80;34.50;;;1.40;98.60;;;;;;4997324;28;20433;-77
2022/12/10 05:18:25;;;;;;;77.70;31.10;;;1.30;98.70;;;;;;4997423;28;20456;-77
2022/12/10 05:20:52;;;;;;;65.80;31.43;;;1.30;98.80;;;;;;4997173;28;20488;-77
2022/12/10 05:23:29;;;;;;;98.30;34.43;;;1.30;98.80;;;;;;4996756;28;20448;-77
2022/12/10 05:26:00;;;;;;;64.60;31.67;;;1.30;99.00;;;;;;4999544;28;20468;-77
2022/12/10 05:28:29;;;;;;;59.23;34.00;;;1.20;99.10;;;;;;5000308;28;20459;-78
2022/12/10 05:30:56;;;;;;;66.07;33.23;;;1.20;99.20;;;;;;4999584;28;20913;-78
2022/12/10 05:33:23;;;;;;;86.40;35.00;;;1.30;99.30;;;;;;4999767;28;20436;-78
2022/12/10 05:35:55;;;;;;;96.80;33.80;;;1.30;99.30;;;;;;5001295;28;20441;-78
2022/12/10 05:38:22;;;;;;;112.53;34.13;;;1.20;99.20;;;;;;5000261;28;20431;-77
2022/12/10 05:40:49;;;;;;;97.97;34.20;;;1.20;99.30;;;;;;5001127;28;20480;-78
2022/12/10 05:43:15;;;;;;;81.23;34.07;;;1.20;99.30;;;;;;5002081;28;20453;-77
2022/12/10 05:45:44;;;;;;;64.47;32.50;;;1.10;99.40;;;;;;5000804;28;20452;-78
2022/12/10 05:48:10;;;;;;;71.20;33.93;;;1.10;99.50;;;;;;4999667;28;20594;-78
2022/12/10 05:50:37;;;;;;;82.27;32.10;;;1.00;99.60;;;;;;5000646;28;20449;-78
2022/12/10 05:53:04;;;;;;;80.17;32.57;;;1.00;99.80;;;;;;4999643;28;20825;-78
2022/12/10 05:55:32;;;;;;;68.57;32.33;;;1.10;99.80;;;;;;4999129;28;20483;-78
2022/12/10 05:57:59;;;;;;;66.43;34.03;;;1.10;99.80;;;;;;4998328;28;20465;-78
2022/12/10 06:00:26;;;;;;;74.50;32.80;;;1.10;99.80;;;;;;4998897;28;20488;-78
2022/12/10 06:02:54;;;;;;;105.40;34.23;;;1.20;99.90;;;;;;4997506;28;20945;-77
2022/12/10 06:05:21;;;;;;;89.30;33.60;;;1.10;99.80;;;;;;4997908;28;20476;-78
2022/12/10 06:07:48;;;;;;;83.67;34.50;;;1.10;99.90;;;;;;4997625;28;20532;-78
2022/12/10 06:10:15;;;;;;;71.90;32.97;;;1.10;99.90;;;;;;4997447;28;20452;-78
2022/12/10 06:12:41;;;;;;;73.17;34.67;;;1.10;99.90;;;;;;4997686;28;20456;-78
2022/12/10 06:15:09;;;;;;;82.37;35.43;;;1.10;99.90;;;;;;4998139;28;20479;-78
2022/12/10 06:17:36;;;;;;;69.23;34.20;;;1.10;99.90;;;;;;4997725;28;20453;-77
2022/12/10 06:20:05;;;;;;;79.30;38.07;;;1.20;99.90;;;;;;4997807;28;21023;-77
2022/12/10 06:22:31;;;;;;;76.07;35.50;;;1.20;99.90;;;;;;4996728;28;20954;-77
2022/12/10 06:24:58;;;;;;;77.87;36.07;;;1.20;99.90;;;;;;4997882;28;20477;-77
2022/12/10 06:27:25;;;;;;;76.53;33.70;;;1.20;99.90;;;;;;4997481;28;20456;-77
2022/12/10 06:29:51;;;;;;;69.03;32.70;;;1.20;99.90;;;;;;4997741;28;20437;-77
2022/12/10 06:32:18;;;;;;;71.27;32.00;;;1.20;99.90;;;;;;4997748;28;20456;-77
2022/12/10 06:34:45;;;;;;;63.83;32.10;;;1.20;99.90;;;;;;4996814;28;20988;-77
2022/12/10 06:37:13;;;;;;;78.57;34.03;;;1.20;99.90;;;;;;4998164;28;20433;-77
2022/12/10 06:39:40;;;;;;;70.50;33.20;;;1.20;99.90;;;;;;4997985;28;20449;-79
2022/12/10 06:42:06;;;;;;;71.23;31.77;;;1.20;99.90;;;;;;4996686;28;20456;-77
2022/12/10 06:44:33;;;;;;;68.47;30.63;;;1.20;99.90;;;;;;4997643;28;20481;-77
2022/12/10 06:47:00;;;;;;;71.97;34.17;;;1.20;99.90;;;;;;4996684;28;20468;-77
2022/12/10 06:49:26;;;;;;;74.83;33.90;;;1.10;99.90;;;;;;4997265;28;20456;-77
2022/12/10 06:51:53;;;;;;;83.23;34.63;;;1.20;99.90;;;;;;5010191;28;20800;-77
2022/12/10 06:54:21;;;;;;;75.70;34.00;;;1.20;99.90;;;;;;5014555;28;20490;-76
2022/12/10 06:56:48;;;;;;;80.20;34.93;;;1.20;99.90;;;;;;5011014;28;20465;-77
2022/12/10 06:59:15;;;;;;;85.80;35.40;;;1.20;99.90;;;;;;4996709;28;20452;-78
2022/12/10 07:01:41;;;;;;;73.57;33.93;;;1.20;99.90;;;;;;4996015;28;20493;-77
2022/12/10 07:04:09;;;;;;;88.70;31.77;;;1.20;99.90;;;;;;4996760;28;21008;-77
2022/12/10 07:06:36;;;;;;;81.10;35.60;;;1.20;99.90;;;;;;4996382;28;20876;-77
2022/12/10 07:09:03;;;;;;;85.37;34.20;;;1.30;99.90;;;;;;4995983;28;20433;-77
2022/12/10 07:11:31;;;;;;;81.93;35.50;;;1.30;99.90;;;;;;4996033;28;20456;-77
2022/12/10 07:13:59;;;;;;;82.50;36.50;;;1.30;99.90;;;;;;4995971;28;20484;-78
2022/12/10 07:16:27;;;;;;;74.77;34.60;;;1.40;99.90;;;;;;4996390;28;20434;-77
2022/12/10 07:18:56;;;;;;;82.27;33.80;;;1.40;99.90;;;;;;4995918;28;20449;-77
2022/12/10 07:21:25;;;;;;;78.67;33.20;;;1.50;99.90;;;;;;4996004;28;20481;-77
2022/12/10 07:23:53;;;;;;;84.63;35.97;;;1.60;99.90;;;;;;4996061;28;20559;-77
2022/12/10 07:26:20;;;;;;;82.37;36.90;;;1.60;99.90;;;;;;4995422;28;20468;-77
2022/12/10 07:28:48;;;;;;;70.10;34.63;;;1.70;99.90;;;;;;4995749;28;20445;-78
2022/12/10 07:31:15;;;;;;;74.43;33.90;;;1.70;99.90;;;;;;4996328;28;20440;-78
2022/12/10 07:33:42;;;;;;;73.03;32.63;;;1.70;99.90;;;;;;4995360;28;20988;-78
2022/12/10 07:36:11;;;;;;;75.57;34.33;;;1.70;99.90;;;;;;4996015;28;20452;-78
2022/12/10 07:38:38;;;;;;;78.30;33.93;;;1.80;99.90;;;;;;4995618;28;20457;-77
2022/12/10 07:41:08;;;;;;;68.87;34.37;;;1.80;99.90;;;;;;4995794;28;20857;-78
2022/12/10 07:43:35;;;;;;;70.37;32.50;;;1.80;99.90;;;;;;4995799;28;20473;-78
2022/12/10 07:46:05;;;;;;;61.80;30.23;;;1.80;99.80;;;;;;4996455;28;20859;-78
2022/12/10 07:48:33;;;;;;;53.77;28.43;;;1.80;99.50;;;;;;4994882;28;20442;-77
2022/12/10 07:51:00;;;;;;;51.30;27.03;;;1.70;99.40;;;;;;4995484;28;20448;-78
2022/12/10 07:53:27;;;;;;;47.50;25.00;;;1.70;99.30;;;;;;4995153;28;20456;-78
2022/12/10 07:55:53;;;;;;;48.57;26.43;;;1.60;99.30;;;;;;4995232;28;20461;-77
2022/12/10 07:58:20;;;;;;;46.47;25.60;;;1.60;99.50;;;;;;4995144;28;20964;-76
2022/12/10 08:00:47;;;;;;;49.97;28.03;;;1.60;99.60;;;;;;4994879;28;20489;-77
2022/12/10 08:03:15;;;;;;;54.13;27.30;;;1.50;99.70;;;;;;4994436;28;20460;-76
2022/12/10 08:05:41;;;;;;;46.37;26.23;;;1.50;99.90;;;;;;4994904;28;20453;-76
2022/12/10 08:08:08;;;;;;;57.60;27.27;;;1.50;99.90;;;;;;4994990;28;20455;-77
2022/12/10 08:10:35;;;;;;;49.77;28.80;;;1.60;99.90;;;;;;4994828;28;20445;-76
2022/12/10 08:13:02;;;;;;;47.97;25.23;;;1.70;99.90;;;;;;4995073;28;20465;-77
2022/12/10 08:15:29;;;;;;;53.77;28.70;;;1.70;99.80;;;;;;4994830;28;20468;-77
2022/12/10 08:17:56;;;;;;;53.67;29.43;;;1.70;99.60;;;;;;4994533;28;20476;-77
2022/12/10 08:20:25;;;;;;;53.40;28.43;;;1.80;99.70;;;;;;4994584;28;20495;-76
2022/12/10 08:22:52;;;;;;;55.50;27.00;;;1.90;99.70;;;;;;4994809;28;20869;-77
2022/12/10 08:25:18;;;;;;;48.83;27.73;;;1.90;99.70;;;;;;4994357;28;20488;-78
2022/12/10 08:27:45;;;;;;;53.87;26.97;;;2.00;99.60;;;;;;4994644;28;20821;-77
2022/12/10 08:30:13;;;;;;;48.50;26.77;;;2.10;99.40;;;;;;4994853;28;20433;-77
2022/12/10 08:32:41;;;;;;;51.17;28.87;;;2.10;99.30;;;;;;4994857;28;20429;-77
2022/12/10 08:35:08;;;;;;;51.40;29.43;;;2.20;99.20;;;;;;4995114;28;20476;-76
2022/12/10 08:37:36;;;;;;;57.00;29.63;;;2.20;99.00;;;;;;5009973;28;20472;-77
2022/12/10 08:40:11;;;;;;;51.80;27.83;;;2.20;98.90;;;;;;4994527;28;20867;-77
2022/12/10 08:42:38;;;;;;;44.97;25.60;;;2.30;98.80;;;;;;4995327;28;20460;-77
2022/12/10 08:45:05;;;;;;;51.97;27.77;;;2.30;98.70;;;;;;4995080;28;21036;-77
2022/12/10 08:47:34;;;;;;;53.27;28.67;;;2.40;98.60;;;;;;4995610;28;20464;-76
2022/12/10 08:50:00;;;;;;;59.50;32.10;;;2.40;98.80;;;;;;4995081;28;20455;-76
2022/12/10 08:52:29;;;;;;;66.50;32.93;;;2.50;98.40;;;;;;4995026;28;20937;-76
2022/12/10 08:54:57;;;;;;;83.00;40.70;;;2.50;98.30;;;;;;4995059;28;20505;-76
2022/12/10 08:57:23;;;;;;;70.27;36.50;;;2.60;98.20;;;;;;4994880;28;20455;-76
2022/12/10 08:59:50;;;;;;;64.30;33.13;;;2.60;98.10;;;;;;4994318;28;20444;-76
2022/12/10 09:02:17;;;;;;;65.80;33.50;;;2.70;98.10;;;;;;4994398;28;20487;-76
2022/12/10 09:04:46;;;;;;;60.17;31.57;;;2.70;97.90;;;;;;4994045;28;20468;-76
2022/12/10 09:07:13;;;;;;;60.10;30.90;;;2.80;97.90;;;;;;4994022;28;20544;-76
2022/12/10 09:09:39;;;;;;;60.20;32.00;;;2.80;97.80;;;;;;4994091;28;20457;-76
2022/12/10 09:12:07;;;;;;;64.13;34.97;;;2.80;97.60;;;;;;4994476;28;20492;-76
2022/12/10 09:14:34;;;;;;;63.03;33.33;;;2.80;97.50;;;;;;4994480;28;20481;-76
2022/12/10 09:17:04;;;;;;;57.47;30.60;;;2.90;97.50;;;;;;4994307;28;20499;-76
2022/12/10 09:19:31;;;;;;;66.77;34.83;;;2.90;97.50;;;;;;4994545;28;20449;-76
2022/12/10 09:21:57;;;;;;;65.07;32.13;;;3.00;97.40;;;;;;4994163;28;20476;-76
2022/12/10 09:24:24;;;;;;;64.93;32.67;;;3.00;97.40;;;;;;4994163;28;20480;-75
2022/12/10 09:26:51;;;;;;;62.93;33.17;;;3.10;97.30;;;;;;4993673;28;20469;-75
2022/12/10 09:29:20;;;;;;;60.90;32.20;;;3.10;97.20;;;;;;4993767;28;20878;-76
2022/12/10 09:31:51;;;;;;;80.00;36.60;;;3.20;97.10;;;;;;4993910;28;20787;-76
2022/12/10 09:34:17;;;;;;;65.53;34.20;;;3.20;97.00;;;;;;4993596;28;20495;-74
2022/12/10 09:36:44;;;;;;;59.70;32.40;;;3.30;96.90;;;;;;4994145;28;20489;-76
2022/12/10 09:39:11;;;;;;;61.30;31.23;;;3.30;96.70;;;;;;4994257;28;20437;-77
2022/12/10 09:41:52;;;;;;;59.47;31.00;;;3.40;96.70;;;;;;4993902;28;20859;-77
2022/12/10 09:44:32;;;;;;;62.87;30.57;;;3.40;96.80;;;;;;4993771;28;20469;-77
2022/12/10 09:47:03;;;;;;;64.80;33.07;;;3.50;96.70;;;;;;4993810;28;20902;-77
2022/12/10 09:49:39;;;;;;;59.40;30.60;;;3.50;96.60;;;;;;4993743;28;20450;-77
2022/12/10 09:52:11;;;;;;;55.77;31.27;;;3.60;96.70;;;;;;4994639;28;20430;-76
2022/12/10 09:54:41;;;;;;;67.80;31.87;;;3.60;96.60;;;;;;4993139;28;20494;-77
2022/12/10 09:57:16;;;;;;;54.53;28.63;;;3.70;96.60;;;;;;4993907;28;20465;-76
2022/12/10 09:59:48;;;;;;;50.73;30.17;;;3.70;96.40;;;;;;4993740;28;20464;-77
2022/12/10 10:02:22;;;;;;;53.63;27.90;;;3.70;96.20;;;;;;4993567;28;20976;-76
2022/12/10 10:04:49;;;;;;;48.20;27.07;;;3.70;95.90;;;;;;4993749;28;20470;-77
2022/12/10 10:07:21;;;;;;;49.77;26.40;;;3.70;95.60;;;;;;4993630;28;20954;-77
2022/12/10 10:09:49;;;;;;;46.37;27.30;;;3.70;95.30;;;;;;4993425;28;20466;-77
2022/12/10 10:12:16;;;;;;;45.53;27.33;;;3.70;95.30;;;;;;4995418;28;20461;-77
2022/12/10 10:14:45;;;;;;;46.87;26.37;;;3.70;95.10;;;;;;4996999;28;20466;-76
2022/12/10 10:17:19;;;;;;;43.40;24.30;;;3.80;94.90;;;;;;4996832;28;20473;-77
2022/12/10 10:19:45;;;;;;;37.80;23.20;;;3.80;94.70;;;;;;4996681;28;20469;-76
2022/12/10 10:22:12;;;;;;;35.50;23.60;;;3.70;94.10;;;;;;4996462;28;20516;-76
2022/12/10 10:24:42;;;;;;;37.97;22.20;;;3.70;93.90;;;;;;4996478;28;20477;-76
2022/12/10 10:27:15;;;;;;;37.63;24.07;;;3.70;94.00;;;;;;4996241;28;20485;-76
2022/12/10 10:29:45;;;;;;;38.03;23.30;;;3.60;93.80;;;;;;4996962;28;20458;-77
2022/12/10 10:32:15;;;;;;;44.33;24.90;;;3.60;94.00;;;;;;4996976;28;20978;-76
2022/12/10 10:34:41;;;;;;;40.80;24.60;;;3.60;94.30;;;;;;4996876;28;20468;-76
2022/12/10 10:37:16;;;;;;;37.63;21.60;;;3.60;94.50;;;;;;4996177;28;20975;-76
2022/12/10 10:39:48;;;;;;;37.23;21.93;;;3.60;94.60;;;;;;4997127;28;20814;-76
2022/12/10 10:42:27;;;;;;;35.70;22.67;;;3.60;94.00;;;;;;4997572;28;20466;-77
2022/12/10 10:44:57;;;;;;;37.23;22.40;;;3.60;93.50;;;;;;4996610;28;20477;-76
2022/12/10 10:47:29;;;;;;;32.70;22.03;;;3.40;93.70;;;;;;4996239;28;20532;-76
2022/12/10 10:49:55;;;;;;;34.57;21.60;;;3.40;93.90;;;;;;4995936;28;20966;-76
2022/12/10 10:52:23;;;;;;;42.77;22.80;;;3.30;94.00;;;;;;4996328;28;20456;-77
2022/12/10 10:54:50;;;;;;;36.57;21.67;;;3.30;94.10;;;;;;4996066;28;20473;-76
2022/12/10 10:57:23;;;;;;;33.30;19.53;;;3.30;94.40;;;;;;4996362;28;20566;-76
2022/12/10 10:59:53;;;;;;;35.70;20.10;;;3.30;94.10;;;;;;4996417;28;20429;-77
2022/12/10 11:02:26;;;;;;;34.47;21.43;;;3.40;94.20;;;;;;4996293;28;20481;-76
2022/12/10 11:04:54;;;;;;;31.60;21.03;;;3.40;94.30;;;;;;4996519;28;20518;-76
2022/12/10 11:07:26;;;;;;;31.03;19.00;;;3.50;94.40;;;;;;4996587;28;20461;-76
2022/12/10 11:09:54;;;;;;;31.20;20.70;;;3.50;93.70;;;;;;4996085;28;20561;-76
2022/12/10 11:12:29;;;;;;;30.30;19.40;;;3.50;93.50;;;;;;4996017;28;20457;-76
2022/12/10 11:14:56;;;;;;;30.27;20.53;;;3.50;93.30;;;;;;4995721;28;20989;-76
2022/12/10 11:17:26;;;;;;;34.77;22.67;;;3.60;93.30;;;;;;4996678;28;20433;-76
2022/12/10 11:19:58;;;;;;;38.67;22.20;;;3.60;93.20;;;;;;4996029;28;20450;-76
2022/12/10 11:22:27;;;;;;;34.27;21.03;;;3.60;93.30;;;;;;4995322;28;20473;-76
2022/12/10 11:24:54;;;;;;;26.27;18.80;;;3.60;93.20;;;;;;4995670;28;20484;-76
2022/12/10 11:27:39;;;;;;;41.47;22.77;;;3.70;93.30;;;;;;4995472;28;20461;-76
2022/12/10 11:30:11;;;;;;;29.70;19.70;;;3.80;93.40;;;;;;4995752;28;20431;-77
2022/12/10 11:32:54;;;;;;;29.60;19.20;;;3.80;92.70;;;;;;4995422;28;20438;-76
2022/12/10 11:35:28;;;;;;;27.63;18.40;;;3.70;91.70;;;;;;4995523;28;20477;-76
2022/12/10 11:38:04;;;;;;;34.10;20.40;;;3.80;91.80;;;;;;4996781;28;20433;-76
2022/12/10 11:40:43;;;;;;;31.87;20.47;;;3.70;91.90;;;;;;5009102;28;20820;-76
2022/12/10 11:43:32;;;;;;;30.67;20.07;;;3.70;92.10;;;;;;4994832;28;20990;-76
2022/12/10 11:46:10;;;;;;;32.80;21.20;;;3.60;92.20;;;;;;4995243;28;20437;-76
2022/12/10 11:48:50;;;;;;;36.93;22.07;;;3.70;92.40;;;;;;4995082;28;20829;-76
2022/12/10 11:51:30;;;;;;;35.43;22.13;;;3.70;92.90;;;;;;4995400;28;20464;-76
2022/12/10 11:54:07;;;;;;;33.17;20.67;;;3.70;92.40;;;;;;5002104;28;20575;-77
2022/12/10 11:56:38;;;;;;;35.40;21.70;;;3.50;92.40;;;;;;4997588;28;20491;-77
2022/12/10 11:59:14;;;;;;;37.90;21.50;;;3.50;92.70;;;;;;4995044;28;20779;-77
2022/12/10 12:02:03;;;;;;;37.77;21.60;;;3.50;92.90;;;;;;4995613;28;20479;-77
2022/12/10 12:04:48;;;;;;;34.87;21.30;;;3.50;93.10;;;;;;4994959;28;20509;-76
2022/12/10 12:07:40;;;;;;;32.70;21.03;;;3.60;93.50;;;;;;4995411;28;20472;-77
2022/12/10 12:10:44;;;;;;;36.27;20.70;;;3.80;93.10;;;;;;4995059;28;20429;-77
2022/12/10 12:13:15;;;;;;;33.93;21.97;;;3.90;92.50;;;;;;4993103;28;20469;-76
2022/12/10 12:15:47;;;;;;;34.70;21.80;;;3.90;92.30;;;;;;4994647;28;20940;-77
2022/12/10 12:18:19;;;;;;;37.97;22.30;;;4.00;92.30;;;;;;4994541;28;20910;-76
2022/12/10 12:20:52;;;;;;;39.80;23.00;;;4.00;92.10;;;;;;4994785;28;20433;-77
2022/12/10 12:23:22;;;;;;;38.63;23.07;;;4.00;92.10;;;;;;4994320;28;20994;-76
2022/12/10 12:25:52;;;;;;;36.80;22.80;;;4.00;92.30;;;;;;4994698;28;21001;-77
2022/12/10 12:28:23;;;;;;;39.97;22.90;;;4.00;92.00;;;;;;4994794;28;20462;-77
2022/12/10 12:30:58;;;;;;;39.27;23.60;;;3.70;91.70;;;;;;4994664;28;20913;-77
2022/12/10 12:33:30;;;;;;;40.73;23.77;;;3.70;91.90;;;;;;4993939;28;20928;-77
2022/12/10 12:36:01;;;;;;;37.77;22.17;;;3.50;91.90;;;;;;4994680;28;20444;-77
2022/12/10 12:38:31;;;;;;;39.63;23.20;;;3.50;92.20;;;;;;4994506;28;20433;-76
2022/12/10 12:41:04;;;;;;;46.87;25.00;;;3.50;92.40;;;;;;4994461;28;20457;-76
2022/12/10 12:43:41;;;;;;;44.70;24.60;;;3.40;92.70;;;;;;4995317;28;20883;-76
2022/12/10 12:46:14;;;;;;;40.47;24.13;;;3.50;93.00;;;;;;4994419;28;20445;-76
2022/12/10 12:48:55;;;;;;;43.63;25.80;;;3.50;93.10;;;;;;4993848;28;20938;-76
2022/12/10 12:51:27;;;;;;;37.20;21.90;;;3.50;93.30;;;;;;4994984;28;20450;-76
2022/12/10 12:53:54;;;;;;;41.77;24.67;;;3.50;93.20;;;;;;4994222;28;20467;-75
2022/12/10 12:56:30;;;;;;;49.70;27.90;;;3.50;93.40;;;;;;4994190;28;20453;-77